Time;durP1;ratioP1;P1;durP2;ratioP2;P2;SDS_P1;SDS_P2;PMS_P1;PMS_P2;Temp;Humidity;BMP_temperature;BMP_pressure;BME280_temperature;BME280_humidity;BME280_pressure;Samples;Min_cycle;Max_cycle;Signal;HPM_P1;HPM_P2
2021/05/30 00:00:51;;;;;;;17.50;5.13;;;;;;;16.86;69.02;100608.41;4919507;29;20119;-60
2021/05/30 00:03:18;;;;;;;20.10;6.25;;;;;;;16.29;69.25;100518.75;4902485;29;20086;-61
2021/05/30 00:05:46;;;;;;;16.93;6.80;;;;;;;16.85;68.96;100601.09;4919128;29;20165;-62
2021/05/30 00:08:14;;;;;;;17.53;5.67;;;;;;;16.97;68.40;100592.88;4919459;29;20071;-60
2021/05/30 00:10:41;;;;;;;18.33;5.15;;;;;;;16.35;69.39;100526.75;4919361;29;20438;-58
2021/05/30 00:13:08;;;;;;;17.07;6.20;;;;;;;16.55;69.92;100580.97;4918782;29;20142;-58
2021/05/30 00:15:35;;;;;;;16.40;5.93;;;;;;;16.65;70.14;100591.97;4919123;29;20074;-60
2021/05/30 00:18:03;;;;;;;17.67;5.05;;;;;;;16.67;69.94;100586.84;4919493;29;20072;-58
2021/05/30 00:20:29;;;;;;;16.87;5.87;;;;;;;16.50;69.87;100558.50;4919308;29;20130;-58
2021/05/30 00:22:56;;;;;;;19.60;5.67;;;;;;;16.62;70.26;100574.88;4918883;29;20076;-58
2021/05/30 00:25:23;;;;;;;12.53;4.67;;;;;;;16.61;70.03;100585.28;4918998;29;20147;-59
2021/05/30 00:27:52;;;;;;;17.57;6.93;;;;;;;16.52;70.32;100570.31;4918936;29;20413;-59
2021/05/30 00:30:19;;;;;;;16.60;5.00;;;;;;;16.57;70.24;100578.63;4919106;29;20135;-61
2021/05/30 00:32:47;;;;;;;19.07;6.23;;;;;;;16.63;69.96;100566.06;4918775;29;20087;-59
2021/05/30 00:35:14;;;;;;;13.88;5.80;;;;;;;16.76;69.72;100570.03;4918955;29;20131;-59
2021/05/30 00:37:40;;;;;;;17.20;7.23;;;;;;;16.77;70.12;100572.50;4918647;29;20489;-60
2021/05/30 00:40:08;;;;;;;19.43;4.93;;;;;;;16.81;69.62;100562.22;4918409;29;20048;-60
2021/05/30 00:42:35;;;;;;;18.47;5.70;;;;;;;16.58;69.54;100526.72;4918529;29;20090;-59
2021/05/30 00:45:03;;;;;;;23.83;6.18;;;;;;;16.63;69.61;100520.97;4918519;29;20087;-60
2021/05/30 00:47:30;;;;;;;19.27;6.60;;;;;;;16.61;69.84;100528.91;4918897;29;20052;-60
2021/05/30 00:49:58;;;;;;;19.30;6.90;;;;;;;16.78;69.87;100545.97;4917674;29;20183;-59
2021/05/30 00:52:25;;;;;;;13.88;6.22;;;;;;;16.66;70.71;100548.53;4918426;29;20048;-59
2021/05/30 00:54:52;;;;;;;19.47;6.17;;;;;;;16.80;70.12;100543.66;4918673;29;20132;-59
2021/05/30 00:57:19;;;;;;;14.83;5.43;;;;;;;16.83;70.21;100547.00;4918309;29;20080;-59
2021/05/30 00:59:46;;;;;;;20.93;7.90;;;;;;;16.78;70.09;100539.50;4918237;29;20481;-59
2021/05/30 01:02:14;;;;;;;25.40;6.80;;;;;;;16.59;69.91;100503.03;4918203;29;20507;-57
2021/05/30 01:04:41;;;;;;;18.03;7.30;;;;;;;16.84;69.55;100534.56;4918188;29;20139;-61
2021/05/30 01:07:08;;;;;;;27.40;7.80;;;;;;;16.88;69.72;100533.56;4918000;29;20134;-61
2021/05/30 01:09:35;;;;;;;20.60;6.40;;;;;;;16.80;70.10;100538.00;4917333;29;20124;-61
2021/05/30 01:12:03;;;;;;;23.63;7.30;;;;;;;16.78;70.17;100533.84;4918235;29;20075;-61
2021/05/30 01:14:34;;;;;;;17.33;4.65;;;;;;;16.43;70.67;100498.94;4918009;29;20048;-61
2021/05/30 01:17:01;;;;;;;;;;;;;;;16.68;70.76;100534.09;4918675;29;20111;-61
2021/05/30 01:19:32;;;;;;;18.03;6.20;;;;;;;16.69;70.29;100518.84;4918177;29;19946;-61
2021/05/30 01:21:59;;;;;;;18.13;6.53;;;;;;;16.48;71.75;100525.03;4917930;29;20144;-61
2021/05/30 01:24:26;;;;;;;18.90;5.30;;;;;;;16.53;71.16;100509.94;4918149;29;20048;-61
2021/05/30 01:26:53;;;;;;;23.20;7.40;;;;;;;16.53;71.22;100522.06;4917829;29;20470;-60
2021/05/30 01:29:20;;;;;;;21.27;7.53;;;;;;;16.60;71.30;100530.06;4917662;29;20100;-60
2021/05/30 01:31:47;;;;;;;19.33;7.33;;;;;;;16.77;70.38;100527.38;4917848;29;20120;-61
2021/05/30 01:34:14;;;;;;;20.67;7.53;;;;;;;16.96;69.98;100538.44;4917665;29;20052;-61
2021/05/30 01:36:41;;;;;;;14.93;7.40;;;;;;;17.13;69.67;100534.88;4917619;29;20536;-61
2021/05/30 01:39:08;;;;;;;13.93;6.27;;;;;;;17.22;69.75;100527.25;4917593;29;20079;-61
2021/05/30 01:41:35;;;;;;;18.27;6.30;;;;;;;17.25;69.43;100532.25;4917525;29;20138;-59
2021/05/30 01:44:02;;;;;;;19.53;6.40;;;;;;;17.32;69.04;100523.31;4917478;29;20095;-59
2021/05/30 01:46:29;;;;;;;22.57;8.20;;;;;;;17.40;68.69;100522.53;4917783;29;20111;-59
2021/05/30 01:48:56;;;;;;;18.27;5.97;;;;;;;17.05;68.77;100457.47;4917728;29;20139;-59
2021/05/30 01:51:23;;;;;;;18.02;6.65;;;;;;;17.31;68.70;100501.09;4917731;29;20126;-59
2021/05/30 01:54:26;;;;;;;26.88;7.68;;;;;;;17.32;69.10;100497.09;4917273;29;20137;-59
2021/05/30 01:56:55;;;;;;;17.73;6.55;;;;;;;17.02;68.59;100443.19;4914844;29;20142;-59
2021/05/30 01:59:24;;;;;;;17.52;7.85;;;;;;;17.31;68.85;100492.63;4917622;29;20052;-59
2021/05/30 02:01:54;;;;;;;22.48;7.60;;;;;;;17.20;68.62;100495.72;4916907;29;20497;-59
2021/05/30 02:04:22;;;;;;;;;;;;;;;17.15;69.12;100492.22;4917771;29;20058;-60
2021/05/30 02:06:49;;;;;;;15.02;6.50;;;;;;;17.03;68.85;100478.75;4917235;29;20029;-60
2021/05/30 02:09:17;;;;;;;13.90;7.93;;;;;;;17.00;69.15;100483.03;4917063;29;20048;-60
2021/05/30 02:11:44;;;;;;;15.00;7.43;;;;;;;16.91;68.88;100464.41;4917061;29;20139;-59
2021/05/30 02:14:13;;;;;;;17.80;6.85;;;;;;;16.70;68.98;100431.09;4916701;29;20101;-59
2021/05/30 02:16:42;;;;;;;24.08;6.95;;;;;;;16.90;68.90;100457.13;4917113;29;20054;-59
2021/05/30 02:19:09;;;;;;;20.65;7.72;;;;;;;16.90;69.44;100477.69;4917260;29;20099;-59
2021/05/30 02:21:50;;;;;;;21.77;6.88;;;;;;;16.81;69.85;100474.81;4916961;29;20052;-59
2021/05/30 02:24:20;;;;;;;15.02;7.75;;;;;;;16.65;68.96;100439.72;4917192;29;20142;-59
2021/05/30 02:26:47;;;;;;;30.63;8.57;;;;;;;16.67;69.50;100443.03;4916796;29;20147;-59
2021/05/30 02:29:28;;;;;;;20.20;7.82;;;;;;;16.80;69.07;100452.59;4917860;29;20135;-59
2021/05/30 02:31:55;;;;;;;28.50;8.27;;;;;;;16.92;69.07;100455.63;4917069;29;20497;-59
2021/05/30 02:34:22;;;;;;;20.98;8.77;;;;;;;16.92;69.16;100464.09;4916785;29;20083;-59
2021/05/30 02:36:49;;;;;;;28.95;8.55;;;;;;;16.87;69.49;100457.75;4917031;29;20131;-59
2021/05/30 02:39:16;;;;;;;21.63;6.65;;;;;;;16.76;69.57;100446.75;4917129;29;20135;-60
2021/05/30 02:41:42;;;;;;;22.40;8.02;;;;;;;16.65;69.66;100442.53;4917106;29;20456;-58
2021/05/30 02:44:09;;;;;;;18.23;8.70;;;;;;;16.55;70.05;100438.00;4916961;29;20131;-57
2021/05/30 02:46:37;;;;;;;19.87;9.53;;;;;;;16.49;69.68;100418.75;4917025;29;20058;-57
2021/05/30 02:49:04;;;;;;;17.63;7.97;;;;;;;16.71;69.64;100446.84;4916929;29;20052;-57
2021/05/30 02:51:30;;;;;;;17.08;8.70;;;;;;;16.74;69.60;100434.09;4916528;29;20165;-58
2021/05/30 02:53:57;;;;;;;17.13;8.73;;;;;;;16.93;69.65;100450.81;4916570;29;20115;-58
2021/05/30 02:56:25;;;;;;;24.85;9.88;;;;;;;17.07;69.40;100443.06;4917367;29;20164;-58
2021/05/30 02:58:51;;;;;;;23.40;10.88;;;;;;;17.18;69.37;100443.59;4916836;29;20070;-58
2021/05/30 03:01:18;;;;;;;27.67;10.18;;;;;;;17.25;68.97;100447.59;4916553;29;20083;-59
2021/05/30 03:03:46;;;;;;;29.10;11.85;;;;;;;16.96;69.40;100413.50;4916807;29;20123;-58
2021/05/30 03:06:17;;;;;;;32.97;12.20;;;;;;;17.12;69.01;100430.78;4916553;29;20139;-62
2021/05/30 03:08:43;;;;;;;22.40;10.95;;;;;;;17.18;69.04;100449.25;4916586;29;20079;-62
2021/05/30 03:11:10;;;;;;;33.85;12.10;;;;;;;16.92;68.89;100427.44;4916833;29;20071;-62
2021/05/30 03:13:37;;;;;;;28.23;11.52;;;;;;;17.01;68.82;100439.56;4917115;29;20107;-62
2021/05/30 03:16:04;;;;;;;36.78;11.52;;;;;;;16.95;69.09;100443.69;4920198;29;20061;-64
2021/05/30 03:18:31;;;;;;;23.08;11.48;;;;;;;16.84;69.25;100438.66;4920505;29;20052;-63
2021/05/30 03:20:58;;;;;;;36.70;13.05;;;;;;;16.80;69.25;100430.03;4918934;29;20079;-63
2021/05/30 03:23:25;;;;;;;26.02;11.50;;;;;;;16.53;69.30;100378.28;4918871;29;20052;-60
2021/05/30 03:25:52;;;;;;;34.50;12.35;;;;;;;16.83;69.31;100422.91;4919964;29;20048;-57
2021/05/30 03:28:19;;;;;;;26.88;11.07;;;;;;;16.68;69.76;100410.03;4920120;29;20135;-57
2021/05/30 03:30:46;;;;;;;36.75;11.82;;;;;;;16.79;69.63;100428.38;4920438;29;20055;-56
2021/05/30 03:33:13;;;;;;;28.85;11.60;;;;;;;16.74;69.89;100429.31;4919794;29;20066;-57
2021/05/30 03:35:39;;;;;;;28.58;10.23;;;;;;;16.61;69.61;100404.84;4919811;29;20080;-57
2021/05/30 03:38:09;;;;;;;21.97;10.53;;;;;;;16.57;69.51;100407.50;4920057;29;20144;-58
2021/05/30 03:40:59;;;;;;;;;;;;;;;16.81;69.64;100432.50;4920204;29;20135;-58
2021/05/30 03:43:26;;;;;;;33.47;11.73;;;;;;;16.71;69.79;100429.13;4902987;29;20022;-59
2021/05/30 03:45:53;;;;;;;20.98;10.10;;;;;;;16.76;69.72;100429.84;4919673;29;20129;-59
2021/05/30 03:48:20;;;;;;;32.33;11.25;;;;;;;16.59;70.38;100435.38;4903247;29;20052;-58
2021/05/30 03:50:50;;;;;;;32.97;12.43;;;;;;;16.37;70.25;100412.84;4918713;29;20080;-59
2021/05/30 03:53:20;;;;;;;51.22;12.82;;;;;;;16.49;70.34;100424.38;4919484;29;20469;-59
2021/05/30 03:55:48;;;;;;;44.65;11.07;;;;;;;16.28;70.33;100396.75;4919519;29;20094;-59
2021/05/30 03:58:16;;;;;;;45.40;13.32;;;;;;;16.37;70.37;100405.22;4920242;29;20442;-58
2021/05/30 04:00:43;;;;;;;32.15;13.63;;;;;;;16.36;70.81;100426.13;4919768;29;20075;-61
2021/05/30 04:03:10;;;;;;;37.80;13.00;;;;;;;16.40;70.30;100423.47;4919352;29;20056;-57
2021/05/30 04:05:37;;;;;;;28.73;12.53;;;;;;;16.51;70.39;100438.97;4919638;29;20466;-59
2021/05/30 04:08:04;;;;;;;36.55;14.48;;;;;;;16.54;70.00;100421.41;4919268;29;20083;-59
2021/05/30 04:10:31;;;;;;;34.80;14.93;;;;;;;16.50;70.29;100409.94;4919523;29;20151;-59
2021/05/30 04:12:58;;;;;;;37.42;15.32;;;;;;;16.71;69.87;100424.31;4919285;29;20056;-59
2021/05/30 04:15:25;;;;;;;41.05;15.00;;;;;;;16.89;70.12;100421.56;4917947;29;20084;-59
2021/05/30 04:17:52;;;;;;;38.90;14.32;;;;;;;16.88;70.18;100408.66;4902481;29;20135;-58
2021/05/30 04:20:21;;;;;;;30.93;14.43;;;;;;;17.03;69.99;100427.97;4918994;29;20048;-59
2021/05/30 04:22:48;;;;;;;31.45;13.20;;;;;;;17.09;69.79;100426.63;4918936;29;20079;-59
2021/05/30 04:25:16;;;;;;;29.25;11.68;;;;;;;17.07;69.83;100422.50;4918764;29;20076;-58
2021/05/30 04:27:44;;;;;;;27.33;9.38;;;;;;;16.98;70.16;100433.72;4918898;29;20048;-57
2021/05/30 04:30:12;;;;;;;36.67;11.73;;;;;;;16.86;69.74;100428.72;4918984;29;20084;-58
2021/05/30 04:32:41;;;;;;;39.28;10.70;;;;;;;16.77;70.05;100428.69;4918739;29;20087;-59
2021/05/30 04:35:09;;;;;;;34.13;11.30;;;;;;;16.70;70.16;100428.28;4918640;29;20055;-60
2021/05/30 04:37:36;;;;;;;34.92;12.07;;;;;;;16.64;70.11;100421.13;4918699;29;20084;-57
2021/05/30 04:40:04;;;;;;;37.23;11.77;;;;;;;16.55;70.45;100425.91;4918886;29;20126;-56
2021/05/30 04:42:32;;;;;;;100.27;15.10;;;;;;;16.38;69.96;100390.00;4918648;29;20056;-57
2021/05/30 04:44:59;;;;;;;26.55;12.48;;;;;;;16.56;70.19;100410.66;4918599;29;20143;-59
2021/05/30 04:47:27;;;;;;;51.33;12.30;;;;;;;16.62;70.01;100414.16;4918876;29;20131;-55
2021/05/30 04:49:54;;;;;;;43.00;13.57;;;;;;;16.62;70.02;100417.81;4918757;29;20075;-55
2021/05/30 04:52:21;;;;;;;37.35;12.80;;;;;;;16.66;70.38;100430.09;4918426;29;20079;-58
2021/05/30 04:54:48;;;;;;;30.83;13.53;;;;;;;16.56;70.06;100393.72;4918274;29;20171;-57
2021/05/30 04:57:15;;;;;;;37.13;13.43;;;;;;;16.79;69.88;100422.72;4918420;29;20131;-58
2021/05/30 04:59:42;;;;;;;27.88;11.27;;;;;;;16.61;70.29;100392.75;4918260;29;20143;-58
2021/05/30 05:02:08;;;;;;;29.30;11.60;;;;;;;16.76;70.02;100429.00;4918270;29;20143;-59
2021/05/30 05:04:35;;;;;;;22.10;10.32;;;;;;;16.56;70.54;100419.94;4918289;29;20470;-57
2021/05/30 05:07:02;;;;;;;25.60;9.68;;;;;;;16.43;70.50;100418.03;4918354;29;20052;-60
2021/05/30 05:09:29;;;;;;;40.75;9.73;;;;;;;16.26;70.75;100393.41;4918057;29;20143;-67
2021/05/30 05:11:56;;;;;;;96.77;12.80;;;;;;;16.33;70.40;100401.41;4918098;29;20095;-60
2021/05/30 05:14:23;;;;;;;48.05;11.15;;;;;;;16.40;70.48;100409.41;4917867;29;20094;-59
2021/05/30 05:16:49;;;;;;;56.08;11.77;;;;;;;16.41;70.53;100413.88;4918100;29;20131;-60
2021/05/30 05:19:16;;;;;;;40.42;10.30;;;;;;;16.36;70.43;100412.03;4917911;29;20086;-60
2021/05/30 05:21:43;;;;;;;47.00;9.52;;;;;;;16.35;70.34;100405.56;4918239;29;20076;-60
2021/05/30 05:24:10;;;;;;;36.53;12.57;;;;;;;16.26;70.93;100401.84;4917846;29;20134;-59
2021/05/30 05:26:37;;;;;;;50.70;12.20;;;;;;;16.31;70.73;100406.53;4918685;29;20127;-60
2021/05/30 05:29:04;;;;;;;60.22;12.98;;;;;;;16.29;70.94;100398.41;4917921;29;20135;-60
2021/05/30 05:31:31;;;;;;;43.42;11.43;;;;;;;16.33;70.93;100399.41;4918110;29;20074;-60
2021/05/30 05:33:58;;;;;;;50.90;11.73;;;;;;;16.18;71.40;100405.47;4917709;29;20084;-60
2021/05/30 05:36:24;;;;;;;62.90;11.63;;;;;;;16.09;71.80;100404.56;4917563;29;20544;-60
2021/05/30 05:38:51;;;;;;;66.63;12.73;;;;;;;15.98;72.17;100400.34;4917208;29;20127;-59
2021/05/30 05:41:18;;;;;;;43.63;14.38;;;;;;;16.21;71.42;100410.47;4917885;29;20139;-59
2021/05/30 05:43:45;;;;;;;32.90;12.93;;;;;;;16.29;71.35;100400.38;4900780;29;20131;-53
2021/05/30 05:46:12;;;;;;;38.87;13.80;;;;;;;16.15;71.55;100371.47;4917470;29;20139;-60
2021/05/30 05:48:39;;;;;;;40.30;14.57;;;;;;;16.38;71.32;100389.19;4917749;29;20048;-58
2021/05/30 05:51:06;;;;;;;43.60;14.97;;;;;;;16.54;70.99;100385.59;4917349;29;20140;-59
2021/05/30 05:53:33;;;;;;;52.43;13.73;;;;;;;16.45;71.05;100383.91;4917596;29;20131;-60
2021/05/30 05:56:00;;;;;;;28.33;13.15;;;;;;;16.31;71.69;100384.00;4917192;29;20083;-56
2021/05/30 05:58:27;;;;;;;32.45;10.27;;;;;;;16.15;71.81;100360.22;4916241;29;20076;-59
2021/05/30 06:00:54;;;;;;;30.95;10.77;;;;;;;16.31;71.71;100389.63;4917926;29;20087;-54
2021/05/30 06:03:21;;;;;;;45.08;11.27;;;;;;;16.28;71.89;100388.28;4917239;29;20056;-56
2021/05/30 06:05:48;;;;;;;39.80;11.67;;;;;;;16.16;71.95;100362.69;4916966;29;20557;-61
2021/05/30 06:08:14;;;;;;;22.73;8.43;;;;;;;16.26;71.76;100392.56;4917315;29;20052;-61
2021/05/30 06:10:41;;;;;;;51.60;11.97;;;;;;;16.10;72.35;100387.38;4916833;29;20134;-63
2021/05/30 06:13:11;;;;;;;55.17;11.52;;;;;;;15.95;72.80;100362.41;4916797;29;20091;-62
2021/05/30 06:15:39;;;;;;;55.47;13.90;;;;;;;15.94;72.60;100345.84;4916802;29;20485;-62
2021/05/30 06:18:12;;;;;;;28.57;10.90;;;;;;;15.91;72.93;100358.56;4916822;29;20059;-62
2021/05/30 06:20:41;;;;;;;31.10;10.93;;;;;;;15.97;73.24;100379.81;4916806;29;20143;-62
2021/05/30 06:23:08;;;;;;;29.48;8.77;;;;;;;16.01;73.19;100374.38;4917026;29;20111;-61
2021/05/30 06:25:35;;;;;;;43.83;11.23;;;;;;;15.94;73.47;100371.19;4916807;29;20589;-61
2021/05/30 06:28:03;;;;;;;32.27;11.33;;;;;;;15.61;73.68;100326.34;4916786;29;20079;-62
2021/05/30 06:30:38;;;;;;;34.85;11.90;;;;;;;16.18;72.66;100368.84;4899819;29;20143;-62
2021/05/30 06:33:07;;;;;;;32.77;11.43;;;;;;;16.21;72.85;100361.75;4917069;29;20135;-62
2021/05/30 06:35:39;;;;;;;31.00;11.33;;;;;;;16.39;72.42;100368.28;4916625;29;20052;-63
2021/05/30 06:38:07;;;;;;;27.37;10.37;;;;;;;16.55;72.38;100366.72;4917033;29;20048;-63
2021/05/30 06:40:34;;;;;;;30.35;9.75;;;;;;;16.56;72.27;100365.53;4916832;29;20150;-62
2021/05/30 06:43:02;;;;;;;30.92;10.90;;;;;;;16.66;71.97;100384.16;4916680;29;20044;-61
2021/05/30 06:45:28;;;;;;;22.50;9.13;;;;;;;16.66;72.22;100378.53;4916433;29;20091;-61
2021/05/30 06:47:56;;;;;;;39.90;13.45;;;;;;;16.66;72.05;100370.88;4916216;29;20135;-61
2021/05/30 06:50:24;;;;;;;25.33;10.15;;;;;;;16.66;72.07;100373.72;4919924;29;20087;-62
2021/05/30 06:52:53;;;;;;;32.77;9.77;;;;;;;16.69;72.05;100370.25;4920805;29;20098;-62
2021/05/30 06:55:21;;;;;;;30.40;11.77;;;;;;;16.83;71.57;100375.78;4903253;29;20142;-62
2021/05/30 06:57:48;;;;;;;29.55;10.77;;;;;;;16.77;71.44;100361.00;4920680;29;20060;-62
2021/05/30 07:00:16;;;;;;;29.58;11.40;;;;;;;16.97;71.70;100378.47;4920155;29;20134;-62
2021/05/30 07:02:43;;;;;;;26.92;11.48;;;;;;;17.00;71.55;100384.31;4920034;29;20140;-62
2021/05/30 07:05:11;;;;;;;28.50;12.13;;;;;;;16.55;71.12;100299.88;4903341;29;20537;-62
2021/05/30 07:07:39;;;;;;;27.52;11.35;;;;;;;17.17;71.09;100382.69;4920287;29;20127;-62
2021/05/30 07:10:07;;;;;;;31.35;12.93;;;;;;;17.22;71.41;100363.59;4919899;29;20052;-62
2021/05/30 07:12:34;;;;;;;26.55;11.00;;;;;;;17.28;70.74;100373.56;4920431;29;20146;-62
2021/05/30 07:15:02;;;;;;;25.45;10.68;;;;;;;17.41;70.71;100388.69;4919783;29;20056;-62
2021/05/30 07:17:29;;;;;;;22.17;10.80;;;;;;;17.48;70.83;100382.56;4919646;29;20088;-62
2021/05/30 07:19:57;;;;;;;26.00;10.90;;;;;;;17.60;70.84;100379.88;4919815;29;20087;-62
2021/05/30 07:22:28;;;;;;;31.15;12.30;;;;;;;17.63;70.64;100373.56;4903787;29;20048;-62
2021/05/30 07:24:55;;;;;;;31.98;13.07;;;;;;;17.69;70.55;100382.72;4920283;29;20103;-62
2021/05/30 07:27:22;;;;;;;27.65;11.82;;;;;;;17.84;70.75;100384.22;4920234;29;20098;-62
2021/05/30 07:29:49;;;;;;;28.33;12.55;;;;;;;17.99;70.56;100393.03;4919872;29;20104;-64
2021/05/30 07:32:16;;;;;;;27.40;11.70;;;;;;;18.15;69.98;100390.53;4920122;29;20078;-63
2021/05/30 07:34:42;;;;;;;26.38;12.63;;;;;;;17.95;69.67;100324.25;4919915;29;20569;-62
2021/05/30 07:37:09;;;;;;;25.15;10.80;;;;;;;18.44;69.48;100375.63;4918619;29;20142;-61
2021/05/30 07:39:36;;;;;;;24.42;12.20;;;;;;;18.68;68.70;100392.00;4919782;29;20080;-61
2021/05/30 07:42:03;;;;;;;22.05;11.82;;;;;;;18.66;68.82;100365.22;4919598;29;20052;-62
2021/05/30 07:44:30;;;;;;;20.77;10.27;;;;;;;18.78;68.59;100381.53;4919581;29;20143;-61
2021/05/30 07:47:03;;;;;;;21.27;10.45;;;;;;;18.84;68.17;100371.69;4919399;29;20044;-60
2021/05/30 07:49:31;;;;;;;22.27;9.85;;;;;;;18.75;68.23;100348.25;4919362;29;20059;-60
2021/05/30 07:51:59;;;;;;;25.25;11.60;;;;;;;18.98;68.29;100372.25;4919489;29;20135;-60
2021/05/30 07:54:27;;;;;;;17.50;9.50;;;;;;;19.08;67.86;100377.53;4919039;29;20052;-60
2021/05/30 07:56:54;;;;;;;23.60;11.15;;;;;;;19.21;67.64;100377.59;4919030;29;20087;-61
2021/05/30 07:59:21;;;;;;;23.45;10.85;;;;;;;19.37;67.27;100379.47;4918040;29;20138;-60
2021/05/30 08:01:48;;;;;;;23.30;10.68;;;;;;;19.68;66.71;100374.63;4901652;29;20565;-61
2021/05/30 08:04:15;;;;;;;21.77;10.43;;;;;;;20.05;66.45;100382.09;4918188;29;20520;-61
2021/05/30 08:06:42;;;;;;;26.60;10.93;;;;;;;20.36;65.80;100369.44;4919994;29;20131;-61
2021/05/30 08:09:09;;;;;;;18.60;10.13;;;;;;;20.69;65.16;100380.75;4902429;29;20139;-62
2021/05/30 08:11:39;;;;;;;22.50;11.05;;;;;;;20.54;64.63;100319.84;4919338;29;20471;-62
2021/05/30 08:14:06;;;;;;;23.63;10.85;;;;;;;21.18;64.18;100360.03;4919331;29;20052;-62
2021/05/30 08:16:43;;;;;;;22.40;11.02;;;;;;;21.91;63.22;100376.09;4900272;29;20048;-62
2021/05/30 08:19:12;;;;;;;22.42;10.73;;;;;;;22.43;62.40;100378.00;4900470;29;20068;-62
2021/05/30 08:21:42;;;;;;;22.42;10.23;;;;;;;22.81;61.18;100368.00;4900056;29;20095;-62
2021/05/30 08:24:10;;;;;;;20.95;9.90;;;;;;;22.78;60.80;100306.94;4900469;29;20143;-60
2021/05/30 08:26:50;;;;;;;16.57;10.63;;;;;;;23.66;59.48;100363.53;4900158;29;20049;-63
2021/05/30 08:29:17;;;;;;;20.27;10.18;;;;;;;23.84;58.58;100349.69;4900113;29;20800;-61
2021/05/30 08:31:45;;;;;;;19.42;10.18;;;;;;;24.43;57.89;100373.28;4900081;29;20553;-64
2021/05/30 08:34:11;;;;;;;18.63;10.75;;;;;;;24.87;57.02;100375.69;4900208;29;20056;-63
2021/05/30 08:36:39;;;;;;;19.08;10.80;;;;;;;25.09;56.20;100356.84;4900309;29;20048;-63
2021/05/30 08:39:06;;;;;;;17.83;9.38;;;;;;;25.37;55.27;100365.06;4900029;29;20442;-63
2021/05/30 08:41:37;;;;;;;19.02;9.65;;;;;;;25.51;54.70;100340.38;4899931;29;20524;-62
2021/05/30 08:44:05;;;;;;;16.92;10.23;;;;;;;25.92;53.93;100356.88;4899728;29;20115;-63
2021/05/30 08:46:32;;;;;;;18.00;10.52;;;;;;;26.12;53.15;100360.38;4899728;29;20087;-62
2021/05/30 08:49:01;;;;;;;17.98;9.75;;;;;;;26.33;52.64;100365.53;4900004;29;20078;-63
2021/05/30 08:51:28;;;;;;;16.52;9.82;;;;;;;26.53;52.26;100357.56;4899449;29;20164;-62
2021/05/30 08:53:55;;;;;;;17.20;10.43;;;;;;;26.71;51.65;100349.97;4914138;29;20095;-68
2021/05/30 08:56:22;;;;;;;19.67;10.25;;;;;;;26.94;50.90;100366.97;4899679;29;20052;-67
2021/05/30 08:58:50;;;;;;;20.50;10.85;;;;;;;27.15;50.39;100361.41;4899640;29;20143;-75
2021/05/30 09:01:20;;;;;;;21.45;10.88;;;;;;;27.32;49.83;100350.47;4899742;29;20144;-80
2021/05/30 09:03:53;;;;;;;22.85;11.45;;;;;;;27.54;49.47;100360.84;4899764;29;20132;-64
2021/05/30 09:06:22;;;;;;;19.00;10.82;;;;;;;27.64;48.88;100353.53;4899276;29;20144;-69
2021/05/30 09:08:50;;;;;;;26.00;12.30;;;;;;;27.72;48.31;100348.63;4899575;29;20243;-69
2021/05/30 09:11:39;;;;;;;24.30;13.68;;;;;;;27.86;49.07;100371.69;4899064;29;20135;-68
2021/05/30 09:14:12;;;;;;;23.65;12.60;;;;;;;28.02;48.21;100365.59;4899114;29;20528;-69
2021/05/30 09:17:08;;;;;;;27.00;13.82;;;;;;;28.16;48.09;100364.84;4899090;29;20072;-69
2021/05/30 09:19:45;;;;;;;23.38;13.43;;;;;;;28.34;47.40;100357.94;4899329;29;20127;-69
2021/05/30 09:22:15;;;;;;;27.45;13.63;;;;;;;28.49;46.94;100353.06;4898888;29;20139;-69
2021/05/30 09:24:59;;;;;;;35.03;17.65;;;;;;;28.57;47.12;100348.13;4899123;29;20458;-69
2021/05/30 09:27:53;;;;;;;32.90;19.85;;;;;;;28.63;46.13;100334.19;4898878;29;20057;-69
2021/05/30 09:30:24;;;;;;;29.40;17.25;;;;;;;28.90;45.92;100357.59;4899189;29;20078;-68
2021/05/30 09:32:58;;;;;;;29.08;16.17;;;;;;;29.09;45.58;100365.81;4898724;29;20055;-69
2021/05/30 09:35:28;;;;;;;28.60;15.27;;;;;;;29.16;45.20;100357.22;4898603;29;20139;-68
2021/05/30 09:38:08;;;;;;;23.65;14.25;;;;;;;29.19;44.95;100355.53;4898624;29;20045;-69
2021/05/30 09:40:37;;;;;;;33.72;16.05;;;;;;;29.26;44.19;100358.41;4898709;29;20131;-69
2021/05/30 09:43:07;;;;;;;22.92;12.40;;;;;;;29.30;43.97;100362.13;4898507;29;20056;-69
2021/05/30 09:45:36;;;;;;;27.25;12.50;;;;;;;28.63;44.09;100349.38;4913226;29;20140;-68
2021/05/30 09:48:13;;;;;;;25.20;12.07;;;;;;;28.47;44.64;100349.75;4898445;29;20087;-68
2021/05/30 09:50:40;;;;;;;30.77;12.00;;;;;;;28.23;44.83;100367.72;4898480;29;20063;-70
2021/05/30 09:53:07;;;;;;;23.50;11.45;;;;;;;28.06;44.53;100352.91;4898390;29;20139;-70
2021/05/30 09:55:34;;;;;;;18.27;9.80;;;;;;;28.01;44.81;100373.41;4898585;29;20091;-69
2021/05/30 09:58:19;;;;;;;20.70;11.95;;;;;;;27.72;44.70;100343.72;4898565;29;20406;-68
2021/05/30 10:00:52;;;;;;;19.85;10.98;;;;;;;27.73;45.04;100373.25;4912898;29;20087;-69
2021/05/30 10:03:19;;;;;;;23.52;11.93;;;;;;;27.34;44.87;100327.94;4897126;29;20058;-70
2021/05/30 10:05:46;;;;;;;24.45;11.55;;;;;;;27.48;45.04;100362.44;4898281;29;20087;-70
2021/05/30 10:08:17;;;;;;;25.58;11.60;;;;;;;27.52;45.07;100356.72;4898188;29;20112;-70
2021/05/30 10:10:45;;;;;;;27.25;13.07;;;;;;;27.92;44.39;100364.34;4898225;29;20140;-70
2021/05/30 10:13:13;;;;;;;20.90;11.60;;;;;;;27.91;43.97;100361.88;4898511;29;20450;-71
2021/05/30 10:15:41;;;;;;;16.02;10.00;;;;;;;27.67;44.40;100355.59;4910060;29;20076;-70
2021/05/30 10:18:16;;;;;;;23.10;12.80;;;;;;;27.69;44.50;100340.81;4917398;29;20075;-71
2021/05/30 10:20:45;;;;;;;20.40;10.32;;;;;;;27.92;44.25;100352.03;4917011;29;20132;-70
2021/05/30 10:23:17;;;;;;;22.42;11.38;;;;;;;28.28;43.98;100361.59;4916690;29;20091;-72
2021/05/30 10:25:45;;;;;;;21.98;11.48;;;;;;;28.80;43.55;100362.13;4917110;29;20406;-71
2021/05/30 10:28:32;;;;;;;20.17;11.70;;;;;;;28.99;42.78;100353.13;4917275;29;20335;-70
2021/05/30 10:31:22;;;;;;;22.17;11.85;;;;;;;29.04;43.14;100358.44;4916753;29;20079;-71
2021/05/30 10:34:15;;;;;;;21.35;12.68;;;;;;;28.88;43.21;100351.44;4917105;29;20130;-70
2021/05/30 10:37:04;;;;;;;21.38;11.73;;;;;;;29.18;42.99;100356.78;4916780;29;20084;-70
2021/05/30 10:39:31;;;;;;;22.73;11.30;;;;;;;29.42;41.64;100357.97;4916547;29;20168;-71
2021/05/30 10:42:12;;;;;;;20.92;12.27;;;;;;;29.16;42.72;100347.75;4916753;29;20086;-70
2021/05/30 10:45:06;;;;;;;19.90;12.18;;;;;;;29.50;42.38;100343.19;4916933;29;20056;-69
2021/05/30 10:47:46;;;;;;;24.67;11.70;;;;;;;30.04;41.11;100348.72;4916184;29;20079;-70
2021/05/30 10:50:18;;;;;;;24.30;11.93;;;;;;;29.85;41.08;100346.38;4916513;29;20122;-70
2021/05/30 10:52:53;;;;;;;23.10;12.48;;;;;;;29.51;40.68;100344.81;4916547;29;20044;-71
2021/05/30 10:55:27;;;;;;;24.45;13.00;;;;;;;29.46;41.11;100341.53;4916446;29;20060;-70
2021/05/30 10:57:54;;;;;;;23.95;11.30;;;;;;;29.73;40.82;100351.34;4916614;29;20079;-72
2021/05/30 11:00:24;;;;;;;22.95;13.13;;;;;;;29.69;40.30;100341.09;4916777;29;20091;-72
2021/05/30 11:03:04;;;;;;;21.40;11.75;;;;;;;29.47;41.40;100344.00;4916543;29;20485;-72
2021/05/30 11:05:50;;;;;;;20.85;11.65;;;;;;;29.66;41.32;100339.84;4917404;29;20072;-71
2021/05/30 11:08:29;;;;;;;20.67;11.80;;;;;;;29.75;40.89;100342.28;4916896;29;20422;-71
2021/05/30 11:11:29;;;;;;;25.17;12.30;;;;;;;29.60;40.80;100329.19;4916482;29;20080;-72
2021/05/30 11:14:07;;;;;;;19.67;12.15;;;;;;;29.57;40.75;100341.50;4906018;29;20412;-70
2021/05/30 11:16:40;;;;;;;24.08;12.95;;;;;;;29.53;40.75;100347.25;4916195;29;20056;-71
2021/05/30 11:19:10;;;;;;;19.80;11.93;;;;;;;29.70;40.77;100334.91;4916438;29;20496;-70
2021/05/30 11:21:42;;;;;;;22.85;12.13;;;;;;;30.01;40.04;100337.22;4915541;29;20093;-70